CST,Max TemperatureF,Mean TemperatureF,Min TemperatureF,Max Dew PointF,MeanDew PointF,Min DewpointF,Max Humidity, Mean Humidity, Min Humidity, Max Sea Level PressureIn, Mean Sea Level PressureIn, Min Sea Level PressureIn, Max VisibilityMiles, Mean VisibilityMiles, Min VisibilityMiles, Max Wind SpeedMPH, Mean Wind SpeedMPH, Max Gust SpeedMPH,PrecipitationIn, CloudCover, Events, WindDirDegrees
2012-11-1,60,43,26,33,28,21,82,59,36,29.98,29.93,29.86,10,10,9,18,7,23,0.00,3,,298
2012-11-2,47,36,24,31,27,22,88,67,45,30.14,30.09,30.00,10,10,10,10,6,22,0.00,0,,49
2012-11-3,47,40,32,34,31,27,82,70,58,30.24,30.19,30.13,10,10,9,14,8,21,0.00,6,,75
2012-11-4,48,38,28,34,31,26,89,73,56,30.28,30.23,30.19,10,9,7,7,2,13,0.00,6,,158
2012-11-5,48,39,29,33,31,26,85,67,49,30.20,30.17,30.12,10,8,5,15,7,20,0.00,4,Snow,106
2012-11-6,43,40,37,41,36,30,96,86,76,30.12,29.93,29.85,10,5,2,14,9,56,0.19,8,Rain,217
2012-11-7,45,40,34,38,35,31,100,81,62,30.19,30.08,29.91,10,9,6,17,6,21,T,8,Rain,344
2012-11-8,52,43,33,38,35,30,89,74,59,30.20,30.12,30.04,10,9,6,17,9,22,0.00,2,,169
2012-11-9,57,47,37,47,42,35,92,77,61,30.04,29.98,29.91,9,8,6,14,8,17,0.00,5,,118
2012-11-10,72,63,53,54,51,46,89,69,48,29.91,29.82,29.75,10,10,7,33,18,49,T,2,,169
2012-11-11,64,47,30,56,44,24,93,77,60,30.05,29.82,29.66,10,7,1,31,20,41,0.71,7,Rain,260
2012-11-12,34,28,22,23,21,16,84,73,61,30.41,30.22,30.07,10,10,10,26,16,32,0.00,4,,264
2012-11-13,42,31,19,24,21,16,88,64,39,30.53,30.47,30.41,10,10,10,10,6,14,0.00,0,,206
2012-11-14,52,43,34,32,28,24,75,60,44,30.47,30.41,30.35,10,10,10,17,9,21,0.00,2,,169
2012-11-15,54,43,32,30,28,27,82,59,35,30.37,30.34,30.30,10,10,6,14,7,17,0.00,0,,187
2012-11-16,55,41,27,35,31,26,100,74,47,30.48,30.44,30.38,8,6,3,9,4,10,0.00,0,,60
2012-11-17,57,43,29,33,30,26,85,62,38,30.51,30.46,30.41,10,7,4,15,9,18,0.00,0,,155
2012-11-18,60,46,31,34,32,28,92,63,33,30.40,30.34,30.27,10,8,4,15,10,18,0.00,0,,152
2012-11-19,54,48,41,45,40,34,80,68,56,30.24,30.15,30.08,10,9,7,16,8,21,0.00,6,,168
2012-11-20,60,48,36,47,43,37,100,81,62,30.21,30.14,30.07,8,3,0,16,4,18,0.00,2,Fog,282
2012-11-21,63,50,36,47,41,36,100,72,43,30.24,30.15,30.04,10,4,0,18,10,24,0.00,1,Fog,194
2012-11-22,63,51,38,49,40,30,77,64,51,30.03,29.90,29.77,10,9,5,31,19,43,0.02,2,Rain,221
2012-11-23,38,28,18,30,17,13,84,66,47,30.33,30.21,30.02,10,10,10,38,21,48,0.00,2,,296
2012-11-24,32,23,14,20,17,11,88,73,58,30.33,30.20,29.93,10,10,10,16,9,20,0.00,1,,236
2012-11-25,42,33,23,25,23,20,75,60,45,30.13,29.97,29.87,10,10,10,15,9,21,0.00,2,,293
2012-11-26,33,23,13,23,17,10,88,68,47,30.45,30.32,30.14,10,10,7,17,8,22,0.00,1,,330
2012-11-27,33,21,9,17,12,6,88,66,43,30.47,30.38,30.29,10,10,9,15,7,18,0.00,2,,229
2012-11-28,46,31,15,25,19,13,84,62,40,30.43,30.34,30.25,10,10,9,12,6,15,0.00,0,,215
2012-11-29,53,41,28,34,30,23,79,63,46,30.24,30.12,30.03,10,9,7,14,8,16,0.00,2,,164
2012-11-30,52,41,29,35,32,27,92,73,54,30.13,30.08,30.03,9,7,4,12,6,15,0.00,0,,76